NCAR-RAP Real-Time Weather Data

Output produced by METARs form (17 October 2018  15:47 UTC)
found at http://weather.rap.ucar.edu/surface/
 
RJKA 171000Z 36007KT 9999 FEW030 BKN080 BKN120 22/16 Q1011
RJKA 170900Z 01008KT 9999 FEW030 BKN090 BKN150 22/17 Q1011
RJKA 170800Z 35005KT 9999 -SHRA FEW030 BKN090 BKN150 22/17 Q1011
RJKA 170700Z 36009KT 9999 FEW035 BKN110 BKN150 23/16 Q1010
RJKA 170600Z 01011KT 9999 FEW035 BKN100 BKN150 23/16 Q1010
RJKA 170500Z 01011KT 9999 FEW035 SCT070 BKN120 23/16 Q1010
RJKA 170400Z 01013KT 9999 FEW025 SCT070 BKN150 24/17 Q1010
RJKA 170300Z 01012KT 9999 -RA FEW020 SCT040 BKN150 23/17 Q1011
RJKA 170200Z 02012KT 9999 -RA FEW020 BKN040 BKN130 23/17 Q1011
RJKA 170100Z 01011KT 9999 -RA FEW015 BKN120 BKN140 22/18 Q1011
RJKA 170000Z 35010KT 9999 -RA FEW015 SCT040 BKN120 21/18 Q1011
RJKA 162318Z 35005KT 8000 -RA FEW015 SCT060 BKN120 20/18 Q1011 RMK 1CU015 4SC060 7AC120 A2988
RJKA 162305Z 35007KT 3000 -RA FEW015 BKN025 BKN060 20/18 Q1012 RMK 1CU015 5CU025 6SC060 A2988
RJKA 162300Z 34007KT 300V010 9999 -RA FEW020 BKN060 BKN120 20/18 Q1012
RJKA 162200Z 34007KT 9999 -RA FEW025 BKN050 BKN120 21/18 Q1011
RJKA 162130Z 35008KT 9999 -RA FEW025 BKN060 BKN120 22/18 Q1010
RJKA 161000Z 32002KT 9999 FEW015 22/21 Q1009
RJKA 160900Z 30002KT 9999 FEW015 23/21 Q1009
RJKA 160800Z 01006KT 9999 FEW015 SCT170 25/21 Q1009
RJKA 160700Z 32005KT 280V360 9999 FEW015 SCT120 BKN170 25/21 Q1009
RJKA 160600Z 02008KT 9999 FEW015 SCT025 BKN/// 25/22 Q1009
RJKA 160500Z 36008KT 340V050 9999 FEW014 SCT030 BKN150 25/22 Q1009
RJKA 160400Z 04006KT 9999 FEW014 SCT030 BKN150 25/21 Q1010
RJKA 160300Z 01005KT 340V050 9999 -SHRA FEW010 BKN015 BKN/// 25/22 Q1010
RJKA 160200Z 03005KT 9999 -SHRA FEW009 SCT012 BKN120 24/22 Q1011
RJKA 160100Z 35006KT 9999 -SHRA FEW013 SCT015 BKN025 24/22 Q1011
RJKA 160000Z 02004KT 350V050 9999 FEW013 SCT100 BKN150 24/21 Q1011
RJKA 152300Z 33002KT 9999 FEW012 SCT150 BKN/// 24/22 Q1011
RJKA 152200Z 34003KT 300V010 9999 FEW012 SCT090 BKN150 22/21 Q1011
RJKA 152130Z 32003KT 9999 FEW012 BKN100 BKN150 22/21 Q1011
RJKA 151000Z VRB01KT 4000 -SHRA FEW005 BKN030 BKN050 21/20 Q1013
RJKA 150918Z 00000KT 4000 -SHRA FEW007 BKN030 BKN050 21/20 Q1013 RMK 1ST007 5CU030 7SC050 A2993
RJKA 150900Z 09002KT 3000 -SHRA FEW007 BKN020 BKN045 21/20 Q1013
RJKA 150831Z 11003KT 080V140 8000 -SHRA FEW005 SCT020 BKN050 21/20 Q1013 RMK 1ST005 4CU020 7SC050 A2993
RJKA 150818Z 09003KT 4500 -SHRA FEW007 SCT020 BKN050 22/21 Q1013 RMK 1ST007 4CU020 7SC050 A2993
RJKA 150800Z 10003KT 060V140 6000 -SHRA FEW007 BKN025 BKN050 22/20 Q1013
RJKA 150700Z VRB02KT 9999 -SHRA FEW007 BKN035 BKN050 22/20 Q1013
RJKA 150600Z 03003KT 330V070 9999 -SHRA FEW008 SCT030 BKN045 22/20 Q1013
RJKA 150500Z 05004KT 9999 -SHRA FEW008 BKN035 BKN050 23/21 Q1013
RJKA 150400Z 03005KT 9999 -SHRA FEW008 SCT025 BKN060 22/21 Q1014